sensor_id;sensor_type;location;lat;lon;timestamp;temperature;humidity
16263;DHT22;8239;48.594;8.598;2022-08-01T00:01:37;17.40;85.40
16263;DHT22;8239;48.594;8.598;2022-08-01T00:04:04;17.40;85.70
16263;DHT22;8239;48.594;8.598;2022-08-01T00:06:31;17.40;86.30
16263;DHT22;8239;48.594;8.598;2022-08-01T00:08:58;17.30;86.90
16263;DHT22;8239;48.594;8.598;2022-08-01T00:11:25;17.40;87.80
16263;DHT22;8239;48.594;8.598;2022-08-01T00:13:52;17.40;88.40
16263;DHT22;8239;48.594;8.598;2022-08-01T00:16:19;17.50;88.50
16263;DHT22;8239;48.594;8.598;2022-08-01T00:18:49;17.50;88.50
16263;DHT22;8239;48.594;8.598;2022-08-01T00:21:16;17.60;89.10
16263;DHT22;8239;48.594;8.598;2022-08-01T00:23:44;17.50;89.40
16263;DHT22;8239;48.594;8.598;2022-08-01T00:26:11;17.60;90.00
16263;DHT22;8239;48.594;8.598;2022-08-01T00:28:38;17.70;90.30
16263;DHT22;8239;48.594;8.598;2022-08-01T00:31:05;17.70;90.40
16263;DHT22;8239;48.594;8.598;2022-08-01T00:33:33;17.80;90.40
16263;DHT22;8239;48.594;8.598;2022-08-01T00:36:01;17.80;90.40
16263;DHT22;8239;48.594;8.598;2022-08-01T00:38:28;17.80;90.40
16263;DHT22;8239;48.594;8.598;2022-08-01T00:40:55;17.70;90.50
16263;DHT22;8239;48.594;8.598;2022-08-01T00:43:22;17.70;90.70
16263;DHT22;8239;48.594;8.598;2022-08-01T00:45:49;17.60;90.80
16263;DHT22;8239;48.594;8.598;2022-08-01T00:48:16;17.60;91.00
16263;DHT22;8239;48.594;8.598;2022-08-01T00:50:43;17.50;91.10
16263;DHT22;8239;48.594;8.598;2022-08-01T00:53:13;17.40;91.50
16263;DHT22;8239;48.594;8.598;2022-08-01T00:55:40;17.40;91.80
16263;DHT22;8239;48.594;8.598;2022-08-01T00:58:07;17.30;92.30
16263;DHT22;8239;48.594;8.598;2022-08-01T01:00:35;17.40;93.00
16263;DHT22;8239;48.594;8.598;2022-08-01T01:03:03;17.40;93.30
16263;DHT22;8239;48.594;8.598;2022-08-01T01:05:36;17.40;93.20
16263;DHT22;8239;48.594;8.598;2022-08-01T01:08:11;17.40;93.40
16263;DHT22;8239;48.594;8.598;2022-08-01T01:10:46;17.40;93.60
16263;DHT22;8239;48.594;8.598;2022-08-01T01:13:20;17.30;94.20
16263;DHT22;8239;48.594;8.598;2022-08-01T01:15:53;17.40;94.10
16263;DHT22;8239;48.594;8.598;2022-08-01T01:18:24;17.30;94.20
16263;DHT22;8239;48.594;8.598;2022-08-01T01:20:58;17.30;94.30
16263;DHT22;8239;48.594;8.598;2022-08-01T01:23:40;17.20;94.40
16263;DHT22;8239;48.594;8.598;2022-08-01T01:26:23;17.20;94.70
16263;DHT22;8239;48.594;8.598;2022-08-01T01:29:06;17.10;94.80
16263;DHT22;8239;48.594;8.598;2022-08-01T01:31:40;17.10;95.30
16263;DHT22;8239;48.594;8.598;2022-08-01T01:34:09;17.10;96.10
16263;DHT22;8239;48.594;8.598;2022-08-01T01:36:38;17.10;97.50
16263;DHT22;8239;48.594;8.598;2022-08-01T01:39:06;17.30;97.80
16263;DHT22;8239;48.594;8.598;2022-08-01T01:41:35;17.30;96.90
16263;DHT22;8239;48.594;8.598;2022-08-01T01:44:05;17.30;96.20
16263;DHT22;8239;48.594;8.598;2022-08-01T01:46:33;17.20;96.00
16263;DHT22;8239;48.594;8.598;2022-08-01T01:49:03;17.00;96.00
16263;DHT22;8239;48.594;8.598;2022-08-01T01:51:30;16.80;96.10
16263;DHT22;8239;48.594;8.598;2022-08-01T01:53:59;16.70;96.20
16263;DHT22;8239;48.594;8.598;2022-08-01T01:56:29;16.50;96.40
16263;DHT22;8239;48.594;8.598;2022-08-01T01:59:00;16.30;96.90
16263;DHT22;8239;48.594;8.598;2022-08-01T02:01:31;16.20;97.20
16263;DHT22;8239;48.594;8.598;2022-08-01T02:04:00;16.10;97.60
16263;DHT22;8239;48.594;8.598;2022-08-01T02:06:29;16.00;98.00
16263;DHT22;8239;48.594;8.598;2022-08-01T02:08:57;16.00;98.60
16263;DHT22;8239;48.594;8.598;2022-08-01T02:11:24;15.90;98.70
16263;DHT22;8239;48.594;8.598;2022-08-01T02:13:55;15.80;98.90
16263;DHT22;8239;48.594;8.598;2022-08-01T02:16:26;15.70;99.30
16263;DHT22;8239;48.594;8.598;2022-08-01T02:18:55;15.70;99.40
16263;DHT22;8239;48.594;8.598;2022-08-01T02:21:26;15.60;99.70
16263;DHT22;8239;48.594;8.598;2022-08-01T02:23:57;15.50;99.90
16263;DHT22;8239;48.594;8.598;2022-08-01T02:26:26;15.50;99.90
16263;DHT22;8239;48.594;8.598;2022-08-01T02:28:57;15.40;99.90
16263;DHT22;8239;48.594;8.598;2022-08-01T02:31:27;15.40;99.90
16263;DHT22;8239;48.594;8.598;2022-08-01T02:34:02;15.30;99.90
16263;DHT22;8239;48.594;8.598;2022-08-01T02:36:32;15.20;99.90
16263;DHT22;8239;48.594;8.598;2022-08-01T02:39:03;15.10;99.90
16263;DHT22;8239;48.594;8.598;2022-08-01T02:41:33;15.00;99.90
16263;DHT22;8239;48.594;8.598;2022-08-01T02:44:04;14.90;99.90
16263;DHT22;8239;48.594;8.598;2022-08-01T02:46:36;14.80;99.90
16263;DHT22;8239;48.594;8.598;2022-08-01T02:49:07;14.70;99.90
16263;DHT22;8239;48.594;8.598;2022-08-01T02:51:36;14.60;99.90
16263;DHT22;8239;48.594;8.598;2022-08-01T02:54:05;14.50;99.90
16263;DHT22;8239;48.594;8.598;2022-08-01T02:56:34;14.40;99.90
16263;DHT22;8239;48.594;8.598;2022-08-01T02:59:05;14.30;99.90
16263;DHT22;8239;48.594;8.598;2022-08-01T03:01:34;14.30;99.90
16263;DHT22;8239;48.594;8.598;2022-08-01T03:04:02;14.20;99.90
16263;DHT22;8239;48.594;8.598;2022-08-01T03:06:32;14.10;99.90
16263;DHT22;8239;48.594;8.598;2022-08-01T03:09:00;14.10;99.90
16263;DHT22;8239;48.594;8.598;2022-08-01T03:11:29;14.00;99.90
16263;DHT22;8239;48.594;8.598;2022-08-01T03:13:57;14.00;99.90
16263;DHT22;8239;48.594;8.598;2022-08-01T03:16:27;13.90;99.90
16263;DHT22;8239;48.594;8.598;2022-08-01T03:18:55;13.90;99.90
16263;DHT22;8239;48.594;8.598;2022-08-01T03:21:23;13.80;99.90
16263;DHT22;8239;48.594;8.598;2022-08-01T03:23:53;13.80;99.90
16263;DHT22;8239;48.594;8.598;2022-08-01T03:26:26;13.70;99.90
16263;DHT22;8239;48.594;8.598;2022-08-01T03:28:57;13.70;99.90
16263;DHT22;8239;48.594;8.598;2022-08-01T03:31:25;13.70;99.90
16263;DHT22;8239;48.594;8.598;2022-08-01T03:33:53;13.70;99.90
16263;DHT22;8239;48.594;8.598;2022-08-01T03:36:25;13.60;99.90
16263;DHT22;8239;48.594;8.598;2022-08-01T03:38:57;13.60;99.90
16263;DHT22;8239;48.594;8.598;2022-08-01T03:41:27;13.60;99.90
16263;DHT22;8239;48.594;8.598;2022-08-01T03:44:00;13.50;99.90
16263;DHT22;8239;48.594;8.598;2022-08-01T03:46:32;13.50;99.90
16263;DHT22;8239;48.594;8.598;2022-08-01T03:49:08;13.50;99.90
16263;DHT22;8239;48.594;8.598;2022-08-01T03:51:38;13.50;99.90
16263;DHT22;8239;48.594;8.598;2022-08-01T03:54:08;13.40;99.90
16263;DHT22;8239;48.594;8.598;2022-08-01T03:56:37;13.40;99.90
16263;DHT22;8239;48.594;8.598;2022-08-01T03:59:05;13.30;99.90
16263;DHT22;8239;48.594;8.598;2022-08-01T04:01:33;13.30;99.90
16263;DHT22;8239;48.594;8.598;2022-08-01T04:04:01;13.20;99.90
16263;DHT22;8239;48.594;8.598;2022-08-01T04:06:30;13.20;99.90
16263;DHT22;8239;48.594;8.598;2022-08-01T04:09:00;13.20;99.90
16263;DHT22;8239;48.594;8.598;2022-08-01T04:11:29;13.20;99.90
16263;DHT22;8239;48.594;8.598;2022-08-01T04:13:56;13.20;99.90
16263;DHT22;8239;48.594;8.598;2022-08-01T04:16:25;13.20;99.90
16263;DHT22;8239;48.594;8.598;2022-08-01T04:18:53;13.20;99.90
16263;DHT22;8239;48.594;8.598;2022-08-01T04:21:23;13.30;99.90
16263;DHT22;8239;48.594;8.598;2022-08-01T04:34:07;13.80;99.90
16263;DHT22;8239;48.594;8.598;2022-08-01T04:36:36;13.90;99.90
16263;DHT22;8239;48.594;8.598;2022-08-01T04:39:19;14.00;99.90
16263;DHT22;8239;48.594;8.598;2022-08-01T04:45:13;14.10;99.90
16263;DHT22;8239;48.594;8.598;2022-08-01T04:46:35;14.20;99.90
16263;DHT22;8239;48.594;8.598;2022-08-01T04:49:18;14.40;99.90
16263;DHT22;8239;48.594;8.598;2022-08-01T04:51:52;14.50;99.90
16263;DHT22;8239;48.594;8.598;2022-08-01T04:54:34;14.50;99.90
16263;DHT22;8239;48.594;8.598;2022-08-01T04:57:03;14.50;99.90
16263;DHT22;8239;48.594;8.598;2022-08-01T04:59:32;14.60;99.90
16263;DHT22;8239;48.594;8.598;2022-08-01T05:02:09;14.60;99.90
16263;DHT22;8239;48.594;8.598;2022-08-01T05:04:39;14.60;99.90
16263;DHT22;8239;48.594;8.598;2022-08-01T05:07:07;14.70;99.90
16263;DHT22;8239;48.594;8.598;2022-08-01T05:09:36;14.80;99.90
16263;DHT22;8239;48.594;8.598;2022-08-01T05:14:32;14.90;99.90
16263;DHT22;8239;48.594;8.598;2022-08-01T05:17:00;15.00;99.90
16263;DHT22;8239;48.594;8.598;2022-08-01T05:19:29;15.10;99.90
16263;DHT22;8239;48.594;8.598;2022-08-01T05:21:57;15.20;99.90
16263;DHT22;8239;48.594;8.598;2022-08-01T05:24:24;15.30;99.90
16263;DHT22;8239;48.594;8.598;2022-08-01T05:26:51;15.40;99.90
16263;DHT22;8239;48.594;8.598;2022-08-01T05:29:19;15.60;99.90
16263;DHT22;8239;48.594;8.598;2022-08-01T05:31:46;15.70;99.90
16263;DHT22;8239;48.594;8.598;2022-08-01T05:34:13;15.70;99.90
16263;DHT22;8239;48.594;8.598;2022-08-01T05:36:40;15.80;99.90
16263;DHT22;8239;48.594;8.598;2022-08-01T05:39:08;15.80;99.90
16263;DHT22;8239;48.594;8.598;2022-08-01T05:41:35;15.90;99.90
16263;DHT22;8239;48.594;8.598;2022-08-01T05:44:03;16.10;99.90
16263;DHT22;8239;48.594;8.598;2022-08-01T05:46:30;16.20;99.90
16263;DHT22;8239;48.594;8.598;2022-08-01T05:48:58;16.40;99.90
16263;DHT22;8239;48.594;8.598;2022-08-01T05:51:25;16.60;99.90
16263;DHT22;8239;48.594;8.598;2022-08-01T05:53:53;16.70;99.90
16263;DHT22;8239;48.594;8.598;2022-08-01T05:56:22;16.90;99.90
16263;DHT22;8239;48.594;8.598;2022-08-01T05:58:49;17.10;99.90
16263;DHT22;8239;48.594;8.598;2022-08-01T06:01:17;17.30;99.90
16263;DHT22;8239;48.594;8.598;2022-08-01T06:03:44;17.50;99.90
16263;DHT22;8239;48.594;8.598;2022-08-01T06:06:11;17.80;99.90
16263;DHT22;8239;48.594;8.598;2022-08-01T06:08:39;18.00;99.90
16263;DHT22;8239;48.594;8.598;2022-08-01T06:11:06;18.20;99.90
16263;DHT22;8239;48.594;8.598;2022-08-01T06:13:34;18.40;99.90
16263;DHT22;8239;48.594;8.598;2022-08-01T06:16:01;18.50;99.90
16263;DHT22;8239;48.594;8.598;2022-08-01T06:18:28;18.70;99.90
16263;DHT22;8239;48.594;8.598;2022-08-01T06:20:55;18.90;99.80
16263;DHT22;8239;48.594;8.598;2022-08-01T06:23:22;19.00;99.10
16263;DHT22;8239;48.594;8.598;2022-08-01T06:25:52;19.20;99.10
16263;DHT22;8239;48.594;8.598;2022-08-01T06:28:20;19.40;98.70
16263;DHT22;8239;48.594;8.598;2022-08-01T06:30:48;19.60;98.50
16263;DHT22;8239;48.594;8.598;2022-08-01T06:33:15;19.80;98.10
16263;DHT22;8239;48.594;8.598;2022-08-01T06:35:42;20.00;97.80
16263;DHT22;8239;48.594;8.598;2022-08-01T06:38:09;20.30;97.40
16263;DHT22;8239;48.594;8.598;2022-08-01T06:40:36;20.60;96.70
16263;DHT22;8239;48.594;8.598;2022-08-01T06:43:04;21.10;95.80
16263;DHT22;8239;48.594;8.598;2022-08-01T06:45:31;21.90;94.20
16263;DHT22;8239;48.594;8.598;2022-08-01T06:47:59;22.80;91.60
16263;DHT22;8239;48.594;8.598;2022-08-01T06:50:26;23.70;89.60
16263;DHT22;8239;48.594;8.598;2022-08-01T06:52:53;24.50;83.20
16263;DHT22;8239;48.594;8.598;2022-08-01T06:55:20;25.20;81.30
16263;DHT22;8239;48.594;8.598;2022-08-01T06:57:48;26.40;78.30
16263;DHT22;8239;48.594;8.598;2022-08-01T07:00:17;27.40;71.50
16263;DHT22;8239;48.594;8.598;2022-08-01T07:02:47;28.40;68.90
16263;DHT22;8239;48.594;8.598;2022-08-01T07:05:16;29.60;63.20
16263;DHT22;8239;48.594;8.598;2022-08-01T07:07:43;30.20;58.90
16263;DHT22;8239;48.594;8.598;2022-08-01T07:10:10;30.90;55.90
16263;DHT22;8239;48.594;8.598;2022-08-01T07:12:38;31.20;53.20
16263;DHT22;8239;48.594;8.598;2022-08-01T07:15:07;30.80;52.50
16263;DHT22;8239;48.594;8.598;2022-08-01T07:17:37;30.20;52.80
16263;DHT22;8239;48.594;8.598;2022-08-01T07:20:06;30.20;53.70
16263;DHT22;8239;48.594;8.598;2022-08-01T07:22:34;29.90;53.80
16263;DHT22;8239;48.594;8.598;2022-08-01T07:25:02;29.40;54.70
16263;DHT22;8239;48.594;8.598;2022-08-01T07:27:29;28.80;55.60
16263;DHT22;8239;48.594;8.598;2022-08-01T07:29:56;28.30;56.80
16263;DHT22;8239;48.594;8.598;2022-08-01T07:32:24;27.80;58.00
16263;DHT22;8239;48.594;8.598;2022-08-01T07:34:51;27.40;58.40
16263;DHT22;8239;48.594;8.598;2022-08-01T07:37:18;26.80;59.70
16263;DHT22;8239;48.594;8.598;2022-08-01T07:39:47;26.30;61.40
16263;DHT22;8239;48.594;8.598;2022-08-01T07:42:14;26.00;62.90
16263;DHT22;8239;48.594;8.598;2022-08-01T07:44:41;25.80;63.70
16263;DHT22;8239;48.594;8.598;2022-08-01T07:47:08;25.70;64.30
16263;DHT22;8239;48.594;8.598;2022-08-01T07:49:35;25.40;65.00
16263;DHT22;8239;48.594;8.598;2022-08-01T07:52:03;25.00;66.00
16263;DHT22;8239;48.594;8.598;2022-08-01T07:54:30;24.80;67.50
16263;DHT22;8239;48.594;8.598;2022-08-01T07:56:58;24.90;68.40
16263;DHT22;8239;48.594;8.598;2022-08-01T07:59:25;25.20;68.00
16263;DHT22;8239;48.594;8.598;2022-08-01T08:01:52;25.60;67.20
16263;DHT22;8239;48.594;8.598;2022-08-01T08:04:19;26.00;66.00
16263;DHT22;8239;48.594;8.598;2022-08-01T08:06:46;26.40;64.80
16263;DHT22;8239;48.594;8.598;2022-08-01T08:09:14;26.70;63.90
16263;DHT22;8239;48.594;8.598;2022-08-01T08:11:42;26.80;62.90
16263;DHT22;8239;48.594;8.598;2022-08-01T08:14:11;27.00;62.40
16263;DHT22;8239;48.594;8.598;2022-08-01T08:16:38;27.10;61.80
16263;DHT22;8239;48.594;8.598;2022-08-01T08:19:05;27.10;61.60
16263;DHT22;8239;48.594;8.598;2022-08-01T08:21:32;27.10;61.50
16263;DHT22;8239;48.594;8.598;2022-08-01T08:23:59;27.20;61.60
16263;DHT22;8239;48.594;8.598;2022-08-01T08:26:44;27.40;61.90
16263;DHT22;8239;48.594;8.598;2022-08-01T08:29:12;27.60;60.70
16263;DHT22;8239;48.594;8.598;2022-08-01T08:31:39;27.70;59.70
16263;DHT22;8239;48.594;8.598;2022-08-01T08:34:06;27.70;59.10
16263;DHT22;8239;48.594;8.598;2022-08-01T08:36:33;27.60;58.90
16263;DHT22;8239;48.594;8.598;2022-08-01T08:39:00;27.80;59.30
16263;DHT22;8239;48.594;8.598;2022-08-01T08:41:29;28.80;57.20
16263;DHT22;8239;48.594;8.598;2022-08-01T08:43:56;29.70;54.70
16263;DHT22;8239;48.594;8.598;2022-08-01T08:46:27;30.20;53.50
16263;DHT22;8239;48.594;8.598;2022-08-01T08:48:55;30.70;52.40
16263;DHT22;8239;48.594;8.598;2022-08-01T08:51:23;31.80;52.00
16263;DHT22;8239;48.594;8.598;2022-08-01T08:53:55;33.20;49.60
16263;DHT22;8239;48.594;8.598;2022-08-01T08:56:24;34.40;46.50
16263;DHT22;8239;48.594;8.598;2022-08-01T08:58:52;35.30;44.60
16263;DHT22;8239;48.594;8.598;2022-08-01T09:01:19;35.50;42.40
16263;DHT22;8239;48.594;8.598;2022-08-01T09:03:47;35.10;41.90
16263;DHT22;8239;48.594;8.598;2022-08-01T09:06:14;35.00;41.50
16263;DHT22;8239;48.594;8.598;2022-08-01T09:08:42;35.00;42.20
16263;DHT22;8239;48.594;8.598;2022-08-01T09:11:09;35.50;41.00
16263;DHT22;8239;48.594;8.598;2022-08-01T09:13:36;36.00;40.20
16263;DHT22;8239;48.594;8.598;2022-08-01T09:16:05;36.70;38.40
16263;DHT22;8239;48.594;8.598;2022-08-01T09:18:33;37.10;38.00
16263;DHT22;8239;48.594;8.598;2022-08-01T09:21:10;37.50;38.00
16263;DHT22;8239;48.594;8.598;2022-08-01T09:23:39;38.20;36.50
16263;DHT22;8239;48.594;8.598;2022-08-01T09:26:08;38.30;35.70
16263;DHT22;8239;48.594;8.598;2022-08-01T09:28:35;38.40;34.50
16263;DHT22;8239;48.594;8.598;2022-08-01T09:31:08;37.60;35.00
16263;DHT22;8239;48.594;8.598;2022-08-01T09:33:52;36.60;36.10
16263;DHT22;8239;48.594;8.598;2022-08-01T09:36:24;36.20;36.60
16263;DHT22;8239;48.594;8.598;2022-08-01T09:38:52;36.30;37.00
16263;DHT22;8239;48.594;8.598;2022-08-01T09:41:28;36.80;35.70
16263;DHT22;8239;48.594;8.598;2022-08-01T09:44:05;37.10;35.20
16263;DHT22;8239;48.594;8.598;2022-08-01T09:46:32;37.10;34.60
16263;DHT22;8239;48.594;8.598;2022-08-01T09:49:01;36.70;34.60
16263;DHT22;8239;48.594;8.598;2022-08-01T09:51:31;36.50;35.10
16263;DHT22;8239;48.594;8.598;2022-08-01T09:54:00;36.30;36.00
16263;DHT22;8239;48.594;8.598;2022-08-01T09:56:36;36.50;36.10
16263;DHT22;8239;48.594;8.598;2022-08-01T09:59:03;36.30;36.30
16263;DHT22;8239;48.594;8.598;2022-08-01T10:01:42;35.80;37.60
16263;DHT22;8239;48.594;8.598;2022-08-01T10:04:11;35.90;38.30
16263;DHT22;8239;48.594;8.598;2022-08-01T10:06:42;35.80;37.70
16263;DHT22;8239;48.594;8.598;2022-08-01T10:09:11;35.40;38.00
16263;DHT22;8239;48.594;8.598;2022-08-01T10:11:39;35.10;38.80
16263;DHT22;8239;48.594;8.598;2022-08-01T10:14:07;35.30;38.00
16263;DHT22;8239;48.594;8.598;2022-08-01T10:16:35;35.50;37.70
16263;DHT22;8239;48.594;8.598;2022-08-01T10:19:08;35.90;37.30
16263;DHT22;8239;48.594;8.598;2022-08-01T10:21:43;36.30;36.70
16263;DHT22;8239;48.594;8.598;2022-08-01T10:24:15;36.60;36.20
16263;DHT22;8239;48.594;8.598;2022-08-01T10:26:47;36.40;35.10
16263;DHT22;8239;48.594;8.598;2022-08-01T10:29:15;35.40;36.50
16263;DHT22;8239;48.594;8.598;2022-08-01T10:31:44;34.60;37.90
16263;DHT22;8239;48.594;8.598;2022-08-01T10:34:11;34.40;39.00
16263;DHT22;8239;48.594;8.598;2022-08-01T10:36:42;34.70;38.80
16263;DHT22;8239;48.594;8.598;2022-08-01T10:39:11;35.20;38.20
16263;DHT22;8239;48.594;8.598;2022-08-01T10:41:38;35.90;37.20
16263;DHT22;8239;48.594;8.598;2022-08-01T10:44:06;36.60;36.50
16263;DHT22;8239;48.594;8.598;2022-08-01T10:46:34;36.60;34.20
16263;DHT22;8239;48.594;8.598;2022-08-01T10:49:08;35.60;34.50
16263;DHT22;8239;48.594;8.598;2022-08-01T10:51:37;34.20;37.00
16263;DHT22;8239;48.594;8.598;2022-08-01T10:54:07;32.90;39.40
16263;DHT22;8239;48.594;8.598;2022-08-01T10:56:44;32.50;41.10
16263;DHT22;8239;48.594;8.598;2022-08-01T10:59:15;32.70;40.80
16263;DHT22;8239;48.594;8.598;2022-08-01T11:01:55;33.00;39.80
16263;DHT22;8239;48.594;8.598;2022-08-01T11:04:32;33.30;40.10
16263;DHT22;8239;48.594;8.598;2022-08-01T11:07:04;33.40;40.20
16263;DHT22;8239;48.594;8.598;2022-08-01T11:09:40;34.20;39.90
16263;DHT22;8239;48.594;8.598;2022-08-01T11:12:10;35.20;38.40
16263;DHT22;8239;48.594;8.598;2022-08-01T11:17:43;37.40;35.30
16263;DHT22;8239;48.594;8.598;2022-08-01T11:20:14;37.60;33.90
16263;DHT22;8239;48.594;8.598;2022-08-01T11:26:14;37.70;33.20
16263;DHT22;8239;48.594;8.598;2022-08-01T11:28:43;37.30;33.10
16263;DHT22;8239;48.594;8.598;2022-08-01T11:31:28;37.20;33.60
16263;DHT22;8239;48.594;8.598;2022-08-01T11:33:56;36.40;32.60
16263;DHT22;8239;48.594;8.598;2022-08-01T11:36:23;35.50;34.10
16263;DHT22;8239;48.594;8.598;2022-08-01T11:39:12;35.00;35.40
16263;DHT22;8239;48.594;8.598;2022-08-01T11:41:42;34.40;35.60
16263;DHT22;8239;48.594;8.598;2022-08-01T11:44:12;33.60;37.10
16263;DHT22;8239;48.594;8.598;2022-08-01T11:46:50;32.90;37.90
16263;DHT22;8239;48.594;8.598;2022-08-01T11:49:25;32.60;38.90
16263;DHT22;8239;48.594;8.598;2022-08-01T11:52:01;33.00;39.50
16263;DHT22;8239;48.594;8.598;2022-08-01T11:54:29;33.80;39.10
16263;DHT22;8239;48.594;8.598;2022-08-01T11:57:00;34.60;37.30
16263;DHT22;8239;48.594;8.598;2022-08-01T11:59:28;35.40;35.50
16263;DHT22;8239;48.594;8.598;2022-08-01T12:02:02;35.70;35.70
16263;DHT22;8239;48.594;8.598;2022-08-01T12:04:44;36.00;34.60
16263;DHT22;8239;48.594;8.598;2022-08-01T12:07:12;36.40;33.80
16263;DHT22;8239;48.594;8.598;2022-08-01T12:09:39;36.70;33.70
16263;DHT22;8239;48.594;8.598;2022-08-01T12:12:09;37.00;33.40
16263;DHT22;8239;48.594;8.598;2022-08-01T12:14:36;37.40;32.90
16263;DHT22;8239;48.594;8.598;2022-08-01T12:17:03;37.60;33.20
16263;DHT22;8239;48.594;8.598;2022-08-01T12:19:30;37.80;32.30
16263;DHT22;8239;48.594;8.598;2022-08-01T12:22:12;37.50;32.60
16263;DHT22;8239;48.594;8.598;2022-08-01T12:24:41;37.30;32.00
16263;DHT22;8239;48.594;8.598;2022-08-01T12:27:10;36.90;32.80
16263;DHT22;8239;48.594;8.598;2022-08-01T12:29:39;36.80;33.60
16263;DHT22;8239;48.594;8.598;2022-08-01T12:32:23;37.10;33.90
16263;DHT22;8239;48.594;8.598;2022-08-01T12:34:52;37.60;32.00
16263;DHT22;8239;48.594;8.598;2022-08-01T12:37:19;37.40;31.60
16263;DHT22;8239;48.594;8.598;2022-08-01T12:39:46;37.00;32.90
16263;DHT22;8239;48.594;8.598;2022-08-01T12:42:15;37.10;33.00
16263;DHT22;8239;48.594;8.598;2022-08-01T12:44:45;36.90;32.40
16263;DHT22;8239;48.594;8.598;2022-08-01T12:47:13;36.70;32.80
16263;DHT22;8239;48.594;8.598;2022-08-01T12:49:42;36.50;32.50
16263;DHT22;8239;48.594;8.598;2022-08-01T12:52:10;36.10;33.20
16263;DHT22;8239;48.594;8.598;2022-08-01T12:54:59;36.00;33.00
16263;DHT22;8239;48.594;8.598;2022-08-01T12:57:27;35.20;33.90
16263;DHT22;8239;48.594;8.598;2022-08-01T13:00:06;34.50;36.60
16263;DHT22;8239;48.594;8.598;2022-08-01T13:02:33;34.00;38.30
16263;DHT22;8239;48.594;8.598;2022-08-01T13:05:01;34.20;38.30
16263;DHT22;8239;48.594;8.598;2022-08-01T13:07:36;34.90;37.70
16263;DHT22;8239;48.594;8.598;2022-08-01T13:10:04;35.50;36.90
16263;DHT22;8239;48.594;8.598;2022-08-01T13:12:32;36.50;35.80
16263;DHT22;8239;48.594;8.598;2022-08-01T13:15:12;37.50;34.40
16263;DHT22;8239;48.594;8.598;2022-08-01T13:17:40;38.30;33.40
16263;DHT22;8239;48.594;8.598;2022-08-01T13:20:08;38.30;32.90
16263;DHT22;8239;48.594;8.598;2022-08-01T13:22:36;37.40;33.80
16263;DHT22;8239;48.594;8.598;2022-08-01T13:25:11;36.40;34.90
16263;DHT22;8239;48.594;8.598;2022-08-01T13:27:40;35.70;36.80
16263;DHT22;8239;48.594;8.598;2022-08-01T13:30:11;35.20;37.20
16263;DHT22;8239;48.594;8.598;2022-08-01T13:32:39;34.60;37.90
16263;DHT22;8239;48.594;8.598;2022-08-01T13:35:09;34.20;39.00
16263;DHT22;8239;48.594;8.598;2022-08-01T13:37:38;33.90;39.40
16263;DHT22;8239;48.594;8.598;2022-08-01T13:40:07;33.70;39.60
16263;DHT22;8239;48.594;8.598;2022-08-01T13:42:38;33.50;40.00
16263;DHT22;8239;48.594;8.598;2022-08-01T13:45:06;32.90;40.80
16263;DHT22;8239;48.594;8.598;2022-08-01T13:47:36;32.60;41.40
16263;DHT22;8239;48.594;8.598;2022-08-01T13:50:05;32.10;42.10
16263;DHT22;8239;48.594;8.598;2022-08-01T13:52:32;31.80;42.60
16263;DHT22;8239;48.594;8.598;2022-08-01T13:54:59;31.70;43.00
16263;DHT22;8239;48.594;8.598;2022-08-01T13:57:27;31.50;42.80
16263;DHT22;8239;48.594;8.598;2022-08-01T13:59:55;31.40;42.90
16263;DHT22;8239;48.594;8.598;2022-08-01T14:02:25;31.20;42.80
16263;DHT22;8239;48.594;8.598;2022-08-01T14:04:52;31.00;43.50
16263;DHT22;8239;48.594;8.598;2022-08-01T14:07:20;31.00;43.80
16263;DHT22;8239;48.594;8.598;2022-08-01T14:09:47;31.10;43.20
16263;DHT22;8239;48.594;8.598;2022-08-01T14:12:14;31.30;43.10
16263;DHT22;8239;48.594;8.598;2022-08-01T14:14:41;31.70;42.80
16263;DHT22;8239;48.594;8.598;2022-08-01T14:17:09;32.20;42.20
16263;DHT22;8239;48.594;8.598;2022-08-01T14:19:36;32.60;41.40
16263;DHT22;8239;48.594;8.598;2022-08-01T14:22:03;33.00;40.60
16263;DHT22;8239;48.594;8.598;2022-08-01T14:24:30;33.00;39.70
16263;DHT22;8239;48.594;8.598;2022-08-01T14:26:57;32.70;40.60
16263;DHT22;8239;48.594;8.598;2022-08-01T14:29:25;32.80;41.10
16263;DHT22;8239;48.594;8.598;2022-08-01T14:31:51;32.90;40.60
16263;DHT22;8239;48.594;8.598;2022-08-01T14:34:20;32.80;40.40
16263;DHT22;8239;48.594;8.598;2022-08-01T14:36:47;32.60;41.00
16263;DHT22;8239;48.594;8.598;2022-08-01T14:39:14;32.50;41.90
16263;DHT22;8239;48.594;8.598;2022-08-01T14:41:41;32.30;42.60
16263;DHT22;8239;48.594;8.598;2022-08-01T14:44:08;32.10;42.80
16263;DHT22;8239;48.594;8.598;2022-08-01T14:46:35;31.70;43.30
16263;DHT22;8239;48.594;8.598;2022-08-01T14:49:02;31.40;44.00
16263;DHT22;8239;48.594;8.598;2022-08-01T14:51:31;31.00;44.60
16263;DHT22;8239;48.594;8.598;2022-08-01T14:54:00;30.70;45.30
16263;DHT22;8239;48.594;8.598;2022-08-01T14:56:27;30.40;46.00
16263;DHT22;8239;48.594;8.598;2022-08-01T14:58:54;30.10;46.40
16263;DHT22;8239;48.594;8.598;2022-08-01T15:01:21;29.90;46.80
16263;DHT22;8239;48.594;8.598;2022-08-01T15:03:48;29.70;47.10
16263;DHT22;8239;48.594;8.598;2022-08-01T15:06:16;29.50;47.90
16263;DHT22;8239;48.594;8.598;2022-08-01T15:08:45;29.40;48.60
16263;DHT22;8239;48.594;8.598;2022-08-01T15:11:12;29.30;49.00
16263;DHT22;8239;48.594;8.598;2022-08-01T15:13:39;29.40;48.60
16263;DHT22;8239;48.594;8.598;2022-08-01T15:16:06;29.30;49.10
16263;DHT22;8239;48.594;8.598;2022-08-01T15:18:33;29.40;48.80
16263;DHT22;8239;48.594;8.598;2022-08-01T15:21:00;29.50;48.40
16263;DHT22;8239;48.594;8.598;2022-08-01T15:23:27;29.50;48.10
16263;DHT22;8239;48.594;8.598;2022-08-01T15:25:55;29.50;48.30
16263;DHT22;8239;48.594;8.598;2022-08-01T15:28:23;29.40;48.40
16263;DHT22;8239;48.594;8.598;2022-08-01T15:30:50;29.20;48.40
16263;DHT22;8239;48.594;8.598;2022-08-01T15:33:17;29.10;48.80
16263;DHT22;8239;48.594;8.598;2022-08-01T15:35:44;28.80;49.20
16263;DHT22;8239;48.594;8.598;2022-08-01T15:38:11;28.40;49.60
16263;DHT22;8239;48.594;8.598;2022-08-01T15:40:38;28.10;50.10
16263;DHT22;8239;48.594;8.598;2022-08-01T15:43:07;27.90;50.40
16263;DHT22;8239;48.594;8.598;2022-08-01T15:45:34;27.70;50.90
16263;DHT22;8239;48.594;8.598;2022-08-01T15:48:01;27.50;51.50
16263;DHT22;8239;48.594;8.598;2022-08-01T15:50:28;27.30;51.80
16263;DHT22;8239;48.594;8.598;2022-08-01T15:52:55;27.10;52.40
16263;DHT22;8239;48.594;8.598;2022-08-01T15:55:22;26.90;52.70
16263;DHT22;8239;48.594;8.598;2022-08-01T15:57:49;26.80;53.20
16263;DHT22;8239;48.594;8.598;2022-08-01T16:00:18;26.70;53.40
16263;DHT22;8239;48.594;8.598;2022-08-01T16:02:45;26.60;53.70
16263;DHT22;8239;48.594;8.598;2022-08-01T16:05:12;26.50;54.10
16263;DHT22;8239;48.594;8.598;2022-08-01T16:07:39;26.50;54.10
16263;DHT22;8239;48.594;8.598;2022-08-01T16:10:07;26.50;54.00
16263;DHT22;8239;48.594;8.598;2022-08-01T16:12:34;26.50;54.20
16263;DHT22;8239;48.594;8.598;2022-08-01T16:15:01;26.60;54.10
16263;DHT22;8239;48.594;8.598;2022-08-01T16:17:29;26.60;54.10
16263;DHT22;8239;48.594;8.598;2022-08-01T16:19:56;26.70;54.10